Time;durP1;ratioP1;P1;durP2;ratioP2;P2;SDS_P1;SDS_P2;PMS_P1;PMS_P2;Temp;Humidity;BMP_temperature;BMP_pressure;BME280_temperature;BME280_humidity;BME280_pressure;Samples;Min_cycle;Max_cycle;Signal;HPM_P1;HPM_P2
2021/12/15 00:01:16;;;;;;;0.10;0.10;;;5.80;99.90;;;5.49;100.00;102199.72;5023846;28;20215;-84
2021/12/15 00:03:44;;;;;;;0.00;0.00;;;;;;;5.45;100.00;102191.69;5017420;28;20210;-84
2021/12/15 00:06:17;;;;;;;0.10;0.10;;;;;;;5.42;100.00;102190.59;5000299;28;20570;-83
2021/12/15 00:08:52;;;;;;;0.10;0.10;;;5.50;99.90;;;5.33;100.00;102175.22;4997645;28;20203;-83
2021/12/15 00:11:22;;;;;;;0.00;0.00;;;5.50;99.90;;;5.32;100.00;102181.28;4997363;28;20229;-83
2021/12/15 00:13:54;;;;;;;0.10;0.10;;;;;;;5.31;100.00;102173.31;5003366;28;20207;-83
2021/12/15 00:16:22;;;;;;;0.20;0.20;;;;;;;5.32;100.00;102180.38;4998236;28;20207;-83
2021/12/15 00:18:50;;;;;;;0.30;0.30;;;;;;;5.33;100.00;102179.56;5003361;28;20218;-83
2021/12/15 00:21:20;;;;;;;0.10;0.10;;;5.50;99.90;;;5.31;100.00;102184.72;5020379;28;20230;-83
2021/12/15 00:23:49;;;;;;;0.10;0.10;;;;;;;5.33;100.00;102184.81;5002417;28;20211;-83
2021/12/15 00:26:18;;;;;;;0.30;0.30;;;;;;;5.32;100.00;102186.53;5003550;28;20213;-83
2021/12/15 00:28:46;;;;;;;0.10;0.10;;;5.50;99.90;;;5.29;100.00;102181.13;4988873;28;20226;-84
2021/12/15 00:31:15;;;;;;;0.10;0.10;;;;;;;5.28;100.00;102184.53;4987461;28;20203;-84
2021/12/15 00:33:44;;;;;;;0.10;0.10;;;;;;;5.28;100.00;102184.53;5011210;28;20660;-83
2021/12/15 00:36:13;;;;;;;0.00;0.00;;;5.50;99.90;;;5.26;100.00;102185.28;5006001;28;20215;-84
2021/12/15 00:38:43;;;;;;;0.10;0.10;;;5.50;99.90;;;5.25;100.00;102187.00;4996486;28;20218;-83
2021/12/15 00:41:11;;;;;;;0.10;0.10;;;;;;;5.23;100.00;102183.38;5020383;28;20213;-84
2021/12/15 00:43:40;;;;;;;0.10;0.10;;;;;;;5.23;100.00;102179.84;4992768;28;20230;-84
2021/12/15 00:46:08;;;;;;;0.47;0.47;;;;;;;5.24;100.00;102190.44;4991759;28;20217;-83
2021/12/15 00:48:38;;;;;;;0.10;0.10;;;;;;;5.24;100.00;102192.16;5020586;28;20229;-84
2021/12/15 00:51:06;;;;;;;0.00;0.00;;;;;;;5.22;100.00;102189.44;5002234;28;20211;-84
2021/12/15 00:53:35;;;;;;;0.10;0.10;;;;;;;5.20;100.00;102193.69;5007291;28;20653;-83
2021/12/15 00:56:04;;;;;;;0.10;0.10;;;5.40;99.90;;;5.20;100.00;102187.50;4986135;28;20207;-83
2021/12/15 00:58:32;;;;;;;0.10;0.10;;;;;;;5.19;100.00;102189.22;4996440;28;20215;-84
2021/12/15 01:01:03;;;;;;;0.15;0.15;;;5.30;99.90;;;5.16;100.00;102186.41;5014160;28;20221;-82
2021/12/15 01:03:32;;;;;;;0.10;0.10;;;5.40;99.90;;;5.14;100.00;102188.06;5009576;28;20203;-84
2021/12/15 01:06:09;;;;;;;0.10;0.10;;;5.30;99.90;;;5.13;100.00;102189.78;5002943;28;20237;-83
2021/12/15 01:08:53;;;;;;;0.10;0.10;;;5.30;99.90;;;5.10;100.00;102186.06;5013654;28;20695;-83
2021/12/15 01:20:23;;;;;;;0.03;0.03;;;5.20;99.90;;;5.06;100.00;102199.81;5010834;28;20304;-83
2021/12/15 01:22:55;;;;;;;0.95;0.95;;;5.30;99.90;;;5.04;100.00;102204.06;4993564;28;20958;-84
2021/12/15 01:25:33;;;;;;;0.10;0.10;;;5.30;99.90;;;5.04;100.00;102196.19;5038155;28;20218;-83
2021/12/15 01:28:02;;;;;;;0.10;0.10;;;;;;;5.03;100.00;102204.88;4995366;28;20688;-85
2021/12/15 01:30:34;;;;;;;0.10;0.10;;;5.20;99.90;;;5.00;100.00;102202.97;5002042;28;20212;-84
2021/12/15 01:33:03;;;;;;;0.10;0.10;;;5.20;99.90;;;4.97;100.00;102204.50;4995527;28;20230;-84
2021/12/15 01:35:34;;;;;;;0.10;0.10;;;5.10;99.90;;;4.92;100.00;102198.09;5009911;28;20218;-84
2021/12/15 01:38:03;;;;;;;0.10;0.10;;;;;;;4.88;100.00;102206.56;4996282;28;20210;-84
2021/12/15 01:40:37;;;;;;;0.38;0.38;;;5.00;99.90;;;4.83;100.00;102204.59;4974072;28;20206;-84
2021/12/15 01:46:54;;;;;;;0.75;0.75;;;5.00;99.90;;;4.81;100.00;102210.53;4993821;28;20235;-83
2021/12/15 01:49:18;;;;;;;0.10;0.10;;;4.90;99.90;;;4.72;100.00;102205.66;5007757;28;20234;-83
2021/12/15 01:51:48;;;;;;;0.60;0.60;;;4.90;99.90;;;4.72;100.00;102204.75;4975651;28;20229;-83
2021/12/15 01:54:18;;;;;;;0.10;0.10;;;4.80;99.90;;;4.65;100.00;102194.72;5009590;28;20219;-83
2021/12/15 01:56:47;;;;;;;0.20;0.20;;;;;;;4.61;100.00;102195.34;5010324;28;20206;-84
2021/12/15 01:59:19;;;;;;;0.10;0.10;;;4.70;99.90;;;4.60;100.00;102199.66;4995925;28;20213;-85
2021/12/15 02:01:47;;;;;;;0.10;0.10;;;;;;;4.58;100.00;102203.00;4994719;28;20241;-85
2021/12/15 02:04:18;;;;;;;0.10;0.10;;;;;;;4.54;100.00;102195.75;5010962;28;20222;-84
2021/12/15 02:06:47;;;;;;;0.08;0.08;;;4.70;99.90;;;4.52;100.00;102189.53;4994822;28;20262;-84
2021/12/15 02:09:40;;;;;;;0.35;0.35;;;4.70;99.90;;;4.48;100.00;102196.28;5010609;28;20234;-85
2021/12/15 02:12:11;;;;;;;0.00;0.00;;;4.60;99.90;;;4.42;100.00;102196.81;5026578;28;20226;-84
2021/12/15 02:14:41;;;;;;;0.65;0.65;;;;;;;4.38;100.00;102197.44;5017532;28;20210;-83
2021/12/15 02:17:10;;;;;;;0.10;0.10;;;;;;;4.34;100.00;102194.53;4994323;28;20225;-83
2021/12/15 02:19:39;;;;;;;0.10;0.10;;;;;;;4.32;100.00;102198.78;5009840;28;20207;-83
2021/12/15 02:22:10;;;;;;;0.00;0.00;;;;;;;4.30;100.00;102197.78;5021173;28;20222;-83
2021/12/15 02:24:40;;;;;;;0.10;0.10;;;;;;;4.16;100.00;102189.06;4990708;28;20214;-84
2021/12/15 02:27:12;;;;;;;0.10;0.10;;;;;;;4.12;100.00;102189.69;5003529;28;20251;-85
2021/12/15 02:29:44;;;;;;;0.10;0.10;;;4.20;99.90;;;4.12;100.00;102184.44;5002326;28;20233;-83
2021/12/15 02:34:57;;;;;;;0.05;0.05;;;;;;;4.06;100.00;102189.28;5025611;28;20206;-83
2021/12/15 02:37:25;;;;;;;0.10;0.10;;;4.20;99.90;;;4.07;100.00;102194.63;5009687;28;20217;-85
2021/12/15 02:40:03;;;;;;;0.10;0.10;;;4.10;99.90;;;3.95;100.00;102182.47;4994400;28;20200;-83
2021/12/15 02:42:39;;;;;;;0.40;0.40;;;4.00;99.90;;;3.89;100.00;102185.56;5016468;28;20222;-83
2021/12/15 02:45:13;;;;;;;0.10;0.10;;;4.00;99.90;;;3.85;100.00;102176.63;4996952;28;20201;-83
2021/12/15 02:47:41;;;;;;;0.10;0.10;;;;;;;3.70;100.00;102170.41;4978334;28;20207;-84
2021/12/15 02:50:15;;;;;;;0.17;0.17;;;3.80;99.90;;;3.69;100.00;102172.94;4984793;28;20215;-84
2021/12/15 02:52:44;;;;;;;0.20;0.20;;;;;;;3.76;100.00;102181.25;5018604;28;20226;-83
2021/12/15 02:55:14;;;;;;;0.10;0.10;;;3.90;99.90;;;3.73;100.00;102170.59;4998249;28;20210;-84
2021/12/15 02:57:44;;;;;;;0.10;0.10;;;3.80;99.90;;;3.62;100.00;102169.00;5025618;28;20215;-83
2021/12/15 03:00:18;;;;;;;0.10;0.10;;;3.60;99.90;;;3.50;100.00;102165.59;4990571;28;20226;-84
2021/12/15 03:06:09;;;;;;;0.40;0.40;;;;;;;3.52;100.00;102158.75;5024757;28;20206;-83
2021/12/15 03:08:45;;;;;;;0.10;0.10;;;;;;;3.47;100.00;102158.47;5004797;28;20230;-83
2021/12/15 03:16:47;;;;;;;0.10;0.10;;;;;;;3.42;100.00;102162.50;5012879;28;20215;-83
2021/12/15 03:19:16;;;;;;;0.10;0.10;;;;;;;3.32;100.00;102160.06;5012865;28;20210;-83
2021/12/15 03:21:44;;;;;;;0.10;0.10;;;;;;;3.28;100.00;102158.06;4978522;28;20257;-83
2021/12/15 03:24:24;;;;;;;0.10;0.10;;;3.40;99.90;;;3.26;100.00;102149.22;4991032;28;20662;-84
2021/12/15 03:27:02;;;;;;;0.10;0.10;;;3.40;99.90;;;3.25;100.00;102147.41;4995009;28;20218;-83
2021/12/15 03:37:52;;;;;;;0.20;0.20;;;3.20;99.90;;;3.13;100.00;102162.28;5026025;28;20218;-83
2021/12/15 03:40:27;;;;;;;0.10;0.10;;;3.20;99.90;;;3.03;100.00;102160.75;4995906;28;20215;-83
2021/12/15 03:43:02;;;;;;;0.10;0.10;;;3.10;99.90;;;2.98;100.00;102164.78;5011024;28;20226;-84
2021/12/15 03:45:38;;;;;;;0.10;0.10;;;3.00;99.90;;;2.88;100.00;102157.13;5012052;28;20214;-83
2021/12/15 03:48:13;;;;;;;0.10;0.10;;;3.00;99.90;;;2.84;100.00;102160.34;5016077;28;20210;-83
2021/12/15 03:50:43;;;;;;;0.10;0.10;;;2.90;99.90;;;2.80;100.00;102158.31;5008338;28;20214;-84
2021/12/15 03:53:14;;;;;;;0.10;0.10;;;2.80;99.90;;;2.75;100.00;102164.94;5008263;28;20223;-83
2021/12/15 03:55:43;;;;;;;0.20;0.20;;;2.90;99.90;;;2.76;100.00;102167.66;5011767;28;20206;-83
2021/12/15 03:58:16;;;;;;;0.10;0.10;;;2.90;99.90;;;2.80;100.00;102171.38;4995031;28;20212;-84
2021/12/15 04:01:11;;;;;;;0.50;0.50;;;2.90;99.90;;;2.80;100.00;102177.50;5008663;28;20293;-84
2021/12/15 04:03:45;;;;;;;0.10;0.10;;;2.90;99.90;;;2.75;100.00;102176.31;5014583;23;20251;-77
2021/12/15 04:06:37;;;;;;;0.10;0.10;;;2.90;99.90;;;2.76;100.00;102185.94;5001534;28;20217;-77
2021/12/15 04:09:10;;;;;;;0.10;0.10;;;2.90;99.90;;;2.75;100.00;102185.84;5001610;28;20589;-77
2021/12/15 04:11:40;;;;;;;0.10;0.10;;;2.80;99.90;;;2.76;100.00;102185.03;5017173;28;20206;-79
2021/12/15 04:14:19;;;;;;;0.10;0.10;;;2.90;99.90;;;2.78;100.00;102191.28;4986054;28;20207;-78
2021/12/15 04:17:17;;;;;;;0.90;0.90;;;2.90;99.90;;;2.78;100.00;102196.50;5001481;28;20203;-78
2021/12/15 04:19:45;;;;;;;0.10;0.10;;;2.90;99.90;;;2.80;100.00;102193.19;4984333;28;20215;-78
2021/12/15 04:22:13;;;;;;;0.10;0.10;;;;;;;2.84;100.00;102203.06;4983558;28;20230;-77
2021/12/15 04:24:41;;;;;;;0.10;0.10;;;;;;;2.86;100.00;102209.28;4983255;28;20214;-78
2021/12/15 04:27:09;;;;;;;0.10;0.10;;;;;;;2.85;100.00;102206.56;4984764;28;20210;-78
2021/12/15 04:29:39;;;;;;;0.10;0.10;;;;;;;2.87;100.00;102216.31;5000452;28;20227;-77
2021/12/15 04:32:25;;;;;;;0.30;0.30;;;3.10;99.90;;;2.86;100.00;102222.34;4991462;28;20231;-80
2021/12/15 04:34:53;;;;;;;0.10;0.10;;;3.00;99.90;;;2.86;100.00;102224.97;4967576;28;20219;-79
2021/12/15 04:37:22;;;;;;;0.10;0.10;;;;;;;2.83;100.00;102227.38;4988326;28;20199;-77
2021/12/15 04:39:50;;;;;;;0.10;0.10;;;2.90;99.90;;;2.76;100.00;102224.22;4973100;28;20210;-77
2021/12/15 04:42:23;;;;;;;0.20;0.20;;;;;;;2.75;100.00;102238.09;4989312;28;20253;-79
2021/12/15 04:44:56;;;;;;;0.10;0.10;;;;;;;2.74;100.00;102238.91;4975169;28;20211;-78
2021/12/15 04:47:25;;;;;;;0.10;0.10;;;2.90;99.90;;;2.69;100.00;102233.34;5003137;28;20215;-77
2021/12/15 04:49:57;;;;;;;0.10;0.10;;;2.90;99.90;;;2.73;100.00;102239.69;4990791;28;20231;-78
2021/12/15 04:52:28;;;;;;;0.10;0.10;;;3.00;99.90;;;2.75;100.00;102243.31;4973834;28;20222;-77
2021/12/15 04:54:59;;;;;;;0.15;0.15;;;3.00;99.90;;;2.77;100.00;102252.16;5005804;28;20211;-76
2021/12/15 04:57:28;;;;;;;0.10;0.10;;;3.00;99.90;;;2.76;100.00;102248.66;5005171;28;20196;-77
2021/12/15 04:59:57;;;;;;;0.10;0.10;;;3.00;99.90;;;2.78;100.00;102253.97;4990842;28;20211;-80
2021/12/15 05:02:25;;;;;;;0.10;0.10;;;;;;;2.79;100.00;102258.41;5006917;28;20239;-76
2021/12/15 05:04:54;;;;;;;0.10;0.10;;;3.00;99.90;;;2.80;100.00;102266.34;4990440;28;20215;-78
2021/12/15 05:07:22;;;;;;;0.17;0.17;;;3.10;99.90;;;2.87;100.00;102267.69;4990702;28;20219;-77
2021/12/15 05:09:51;;;;;;;0.10;0.10;;;3.10;99.90;;;2.87;100.00;102273.81;4958378;28;20227;-77
2021/12/15 05:12:20;;;;;;;0.10;0.10;;;;;;;2.91;100.00;102279.25;4975534;28;20230;-77
2021/12/15 05:14:49;;;;;;;0.10;0.10;;;;;;;2.93;100.00;102280.25;5005517;28;20211;-77
2021/12/15 05:17:17;;;;;;;0.10;0.10;;;;;;;2.96;100.00;102283.09;5022868;28;20204;-77
2021/12/15 05:19:49;;;;;;;0.10;0.10;;;;;;;2.99;100.00;102298.97;4991785;28;20223;-78
2021/12/15 05:22:17;;;;;;;0.10;0.10;;;;;;;3.00;100.00;102295.56;4992494;28;20223;-78
2021/12/15 05:24:45;;;;;;;0.10;0.10;;;;;;;3.04;100.00;102298.50;4990264;28;20207;-79
2021/12/15 05:27:16;;;;;;;0.10;0.10;;;3.30;99.90;;;3.07;100.00;102301.31;4990894;28;20215;-78
2021/12/15 05:29:47;;;;;;;0.10;0.10;;;3.40;99.90;;;3.10;100.00;102308.47;4991944;28;20215;-78
2021/12/15 05:32:22;;;;;;;0.10;0.10;;;3.40;99.90;;;3.11;100.00;102302.44;4976232;28;21178;-78
2021/12/15 05:34:56;;;;;;;0.10;0.10;;;3.50;99.90;;;3.15;100.00;102318.44;4990500;28;20210;-78
2021/12/15 05:37:25;;;;;;;0.10;0.10;;;;;;;3.17;100.00;102324.69;4977725;28;20210;-78
2021/12/15 05:39:54;;;;;;;0.10;0.10;;;3.60;99.90;;;3.18;100.00;102317.75;5007937;28;20207;-77
2021/12/15 05:42:25;;;;;;;0.10;0.10;;;3.70;99.90;;;3.24;100.00;102330.34;4985185;28;20242;-78
2021/12/15 05:44:55;;;;;;;0.10;0.10;;;;;;;3.24;100.00;102328.63;4995640;28;20582;-77
2021/12/15 05:47:25;;;;;;;0.10;0.10;;;3.70;99.90;;;3.27;100.00;102330.53;4980471;28;20215;-77
2021/12/15 05:49:55;;;;;;;0.10;0.10;;;;;;;3.26;100.00;102329.63;4987929;28;20224;-77
2021/12/15 05:52:28;;;;;;;0.10;0.10;;;3.70;99.90;;;3.27;100.00;102326.22;4976987;28;20250;-78
2021/12/15 05:54:57;;;;;;;0.15;0.15;;;;;;;3.27;100.00;102335.78;5012464;28;20207;-79
2021/12/15 05:57:25;;;;;;;0.10;0.10;;;3.70;99.90;;;3.28;100.00;102330.66;5011676;28;20218;-77
2021/12/15 05:59:53;;;;;;;0.10;0.10;;;3.70;99.90;;;3.31;100.00;102327.34;4996102;28;20203;-77
2021/12/15 06:02:21;;;;;;;0.10;0.10;;;3.70;99.90;;;3.32;100.00;102340.50;4996050;28;20697;-77
2021/12/15 06:04:49;;;;;;;0.10;0.10;;;;;;;3.31;100.00;102341.31;5029469;28;20214;-76
2021/12/15 06:07:18;;;;;;;0.10;0.10;;;;;;;3.32;100.00;102348.38;4986522;28;20223;-77
2021/12/15 06:09:46;;;;;;;0.10;0.10;;;3.70;99.90;;;3.35;100.00;102350.28;4996021;28;20219;-77
2021/12/15 06:12:14;;;;;;;0.10;0.10;;;;;;;3.37;100.00;102344.34;4996672;28;20689;-77
2021/12/15 06:14:43;;;;;;;0.10;0.10;;;3.70;99.90;;;3.37;100.00;102351.28;5013055;28;20234;-77
2021/12/15 06:17:12;;;;;;;0.10;0.10;;;3.80;99.90;;;3.38;100.00;102348.78;5013096;28;20230;-78
2021/12/15 06:19:41;;;;;;;0.10;0.10;;;3.70;99.90;;;3.37;100.00;102356.53;4980913;28;20215;-77
2021/12/15 06:22:11;;;;;;;0.10;0.10;;;;;;;3.39;100.00;102361.06;4980446;28;20231;-78
2021/12/15 06:24:39;;;;;;;0.10;0.10;;;;;;;3.38;100.00;102354.00;4979922;28;20203;-77
2021/12/15 06:27:16;;;;;;;0.10;0.10;;;;;;;3.37;100.00;102362.66;4992371;28;20223;-77
2021/12/15 06:29:45;;;;;;;0.10;0.10;;;;;;;3.37;100.00;102360.03;5012905;28;20704;-78
2021/12/15 06:32:13;;;;;;;0.10;0.10;;;;;;;3.39;100.00;102365.38;4995937;28;20228;-78
2021/12/15 06:34:42;;;;;;;0.98;0.98;;;3.70;99.90;;;3.39;100.00;102366.28;4993737;28;20685;-77
2021/12/15 06:37:11;;;;;;;0.10;0.10;;;3.70;99.90;;;3.39;100.00;102371.53;4989142;28;20211;-77
2021/12/15 06:39:39;;;;;;;0.10;0.10;;;;;;;3.39;100.00;102371.53;4996199;28;20212;-77
2021/12/15 06:42:07;;;;;;;0.57;0.57;;;3.70;99.90;;;3.40;100.00;102372.44;5025083;28;20232;-77
2021/12/15 06:44:36;;;;;;;0.10;0.10;;;3.70;99.90;;;3.41;100.00;102379.47;4977069;28;20231;-77
2021/12/15 06:57:16;;;;;;;0.10;0.10;;;3.70;99.90;;;3.42;100.00;102390.03;5009423;28;20215;-77
2021/12/15 06:58:23;;;;;;;0.10;0.10;;;;;;;3.43;100.00;102409.25;5011058;28;20215;-77
2021/12/15 07:00:56;;;;;;;0.10;0.10;;;3.70;99.90;;;3.43;100.00;102412.78;4994613;28;20223;-77
2021/12/15 07:03:25;;;;;;;0.10;0.10;;;;;;;3.43;100.00;102419.72;4999806;28;20226;-79
2021/12/15 07:05:55;;;;;;;0.10;0.10;;;3.70;99.90;;;3.44;100.00;102427.66;4999785;28;20214;-78
2021/12/15 07:08:29;;;;;;;0.10;0.10;;;3.80;99.90;;;3.46;100.00;102423.44;5013013;28;20204;-77
2021/12/15 07:11:01;;;;;;;0.10;0.10;;;3.80;99.90;;;3.46;100.00;102428.69;4996046;28;20219;-78
2021/12/15 07:13:30;;;;;;;0.10;0.10;;;;;;;3.47;100.00;102427.88;4979982;28;20242;-79
2021/12/15 07:16:00;;;;;;;0.10;0.10;;;3.80;99.90;;;3.47;100.00;102427.88;4980593;28;20215;-78
2021/12/15 07:18:43;;;;;;;0.20;0.20;;;3.80;99.90;;;3.49;100.00;102436.75;5007199;28;20207;-77
2021/12/15 07:21:20;;;;;;;0.10;0.10;;;3.80;99.90;;;3.51;100.00;102444.69;4999084;28;20199;-78
2021/12/15 07:23:51;;;;;;;0.30;0.30;;;3.80;99.90;;;3.51;100.00;102437.75;5015092;28;20223;-79
2021/12/15 07:26:20;;;;;;;0.13;0.13;;;;;;;3.53;100.00;102449.22;5011850;28;20203;-78
2021/12/15 07:28:48;;;;;;;0.10;0.10;;;3.90;99.90;;;3.55;100.00;102457.19;4998363;28;20207;-78
2021/12/15 07:31:18;;;;;;;0.10;0.10;;;;;;;3.57;100.00;102455.59;4999759;28;20227;-77
2021/12/15 07:33:46;;;;;;;0.10;0.10;;;;;;;3.61;100.00;102465.47;4998505;28;20234;-79
2021/12/15 07:36:16;;;;;;;0.10;0.10;;;3.90;99.90;;;3.62;100.00;102467.28;4983909;28;20211;-78
2021/12/15 07:38:44;;;;;;;0.20;0.20;;;;;;;3.64;100.00;102464.75;5000434;28;20212;-78
2021/12/15 07:41:27;;;;;;;0.10;0.10;;;4.00;99.90;;;3.68;100.00;102477.25;5000821;28;20203;-78
2021/12/15 07:43:59;;;;;;;0.10;0.10;;;4.00;99.90;;;3.73;100.00;102479.41;4969688;28;20234;-78
2021/12/15 07:46:53;;;;;;;0.10;0.10;;;4.10;99.90;;;3.80;100.00;102486.88;4986597;28;20199;-78
2021/12/15 07:49:23;;;;;;;0.30;0.30;;;4.20;99.90;;;3.89;100.00;102497.06;5016279;28;20211;-79
2021/12/15 07:51:59;;;;;;;0.10;0.10;;;4.20;99.90;;;3.88;100.00;102496.94;4980447;28;20235;-78
2021/12/15 07:54:34;;;;;;;0.10;0.10;;;4.20;99.90;;;3.86;100.00;102496.84;4981174;28;20199;-78
2021/12/15 07:57:08;;;;;;;0.10;0.10;;;4.20;99.90;;;3.87;100.00;102498.66;4980311;28;20207;-78
2021/12/15 07:59:36;;;;;;;0.10;0.10;;;;;;;3.88;100.00;102507.41;4993340;28;20207;-78
2021/12/15 08:02:05;;;;;;;0.10;0.10;;;;;;;3.91;100.00;102508.56;4982626;28;20243;-79
2021/12/15 08:04:33;;;;;;;0.10;0.10;;;;;;;3.94;100.00;102508.78;4998805;28;20208;-78
2021/12/15 08:07:02;;;;;;;0.65;0.65;;;4.30;99.90;;;3.97;100.00;102515.94;5015403;28;20211;-77
2021/12/15 08:09:33;;;;;;;0.17;0.17;;;;;;;3.97;100.00;102514.22;5011860;28;20204;-78
2021/12/15 08:12:01;;;;;;;0.10;0.10;;;;;;;3.97;100.00;102511.63;4977552;28;20234;-78
2021/12/15 08:14:30;;;;;;;0.10;0.10;;;;;;;3.99;100.00;102530.94;4992928;28;20211;-77
2021/12/15 08:16:58;;;;;;;0.10;0.10;;;4.30;99.90;;;4.01;100.00;102521.50;5004902;28;20215;-79
2021/12/15 08:19:27;;;;;;;0.10;0.10;;;;;;;4.06;100.00;102524.44;5001041;28;20215;-78
2021/12/15 08:21:55;;;;;;;0.10;0.10;;;;;;;4.07;100.00;102523.63;5019116;28;20228;-78
2021/12/15 08:24:25;;;;;;;0.00;0.00;;;6.30;99.90;;;4.10;100.00;102523.84;5006365;28;20215;-78
2021/12/15 08:26:59;;;;;;;0.10;0.10;;;4.60;99.90;;;4.14;100.00;102529.38;4963637;28;20214;-78
2021/12/15 08:29:35;;;;;;;0.10;0.10;;;4.60;99.90;;;4.21;100.00;102532.41;5008738;28;20572;-77
2021/12/15 08:32:12;;;;;;;0.10;0.10;;;3.50;99.90;;;4.30;100.00;102540.91;5003551;28;20234;-80
2021/12/15 08:34:51;;;;;;;0.20;0.20;;;4.70;99.90;;;4.36;100.00;102541.31;4959016;28;20211;-78
2021/12/15 08:37:34;;;;;;;0.03;0.03;;;4.90;99.90;;;4.36;100.00;102539.59;4969248;28;20221;-78
2021/12/15 08:40:11;;;;;;;0.10;0.10;;;4.90;99.90;;;4.42;100.00;102539.09;5003341;28;20215;-79
2021/12/15 08:42:55;;;;;;;0.00;0.00;;;4.90;99.90;;;4.42;100.00;102542.63;4973582;28;20235;-78
2021/12/15 08:45:31;;;;;;;0.10;0.10;;;5.80;99.90;;;4.43;100.00;102546.16;4988396;28;20207;-80
2021/12/15 08:48:10;;;;;;;0.10;0.10;;;4.90;99.90;;;4.49;100.00;102547.47;4972912;28;20211;-78
2021/12/15 08:50:50;;;;;;;0.05;0.05;;;4.90;99.90;;;4.52;100.00;102544.16;4986557;28;20218;-78
2021/12/15 08:53:26;;;;;;;0.10;0.10;;;4.90;99.90;;;4.54;100.00;102541.66;4973500;28;21614;-78
2021/12/15 08:56:04;;;;;;;0.40;0.40;;;5.00;99.90;;;4.61;100.00;102551.72;4987583;28;20211;-78
2021/12/15 08:58:39;;;;;;;0.20;0.20;;;5.00;99.90;;;4.64;100.00;102550.22;4988222;28;20589;-78
2021/12/15 09:01:15;;;;;;;0.00;0.00;;;5.10;99.90;;;4.70;100.00;102550.63;4975770;28;20720;-78
2021/12/15 09:03:52;;;;;;;0.10;0.10;;;5.20;99.90;;;4.75;100.00;102561.41;5002196;28;20239;-78
2021/12/15 09:06:27;;;;;;;0.00;0.00;;;;;;;4.79;100.00;102564.34;4973362;28;20214;-78
2021/12/15 09:09:05;;;;;;;0.10;0.10;;;5.20;99.90;;;4.85;100.00;102566.47;4987372;28;20223;-78
2021/12/15 09:11:43;;;;;;;0.05;0.05;;;5.30;99.90;;;4.88;100.00;102566.66;4986979;28;20227;-79
2021/12/15 09:14:19;;;;;;;0.00;0.00;;;5.30;99.90;;;4.93;100.00;102569.59;4986319;28;20203;-79
2021/12/15 09:17:14;;;;;;;0.10;0.10;;;5.40;99.90;;;4.96;100.00;102572.41;5003259;28;20207;-79
2021/12/15 09:19:55;;;;;;;0.10;0.10;;;5.40;99.90;;;5.01;100.00;102571.00;5006603;28;20194;-79
2021/12/15 09:22:32;;;;;;;0.10;0.10;;;5.50;99.90;;;5.04;100.00;102571.19;5005055;28;20228;-79
2021/12/15 09:25:12;;;;;;;0.05;0.05;;;5.50;99.90;;;5.10;100.00;102575.13;4993036;28;20226;-79
2021/12/15 09:27:58;;;;;;;0.10;0.10;;;5.50;99.90;;;5.14;100.00;102574.50;4981818;28;20234;-79
2021/12/15 09:30:44;;;;;;;0.17;0.17;;;5.70;99.90;;;5.21;100.00;102582.81;4989095;28;20214;-78
2021/12/15 09:33:34;;;;;;;0.00;0.00;;;5.70;99.90;;;5.25;100.00;102577.88;5000092;28;20254;-78
2021/12/15 09:36:19;;;;;;;0.00;0.00;;;5.70;99.90;;;5.33;100.00;102583.59;5005565;28;20203;-79
2021/12/15 09:39:03;;;;;;;0.03;0.03;;;5.80;99.90;;;5.41;100.00;102580.66;4991436;28;20195;-79
2021/12/15 09:41:51;;;;;;;0.10;0.10;;;5.90;99.90;;;5.51;100.00;102583.88;4981437;28;20207;-79
2021/12/15 09:44:38;;;;;;;0.00;0.00;;;6.00;99.90;;;5.55;100.00;102588.50;4973522;28;20203;-77
2021/12/15 09:47:38;;;;;;;0.10;0.10;;;;;;;5.58;100.00;102594.88;5009312;28;20211;-81
2021/12/15 10:05:01;;;;;;;0.00;0.00;;;6.40;99.90;;;5.93;100.00;102575.19;4996498;28;20223;-79
2021/12/15 10:10:50;;;;;;;0.10;0.10;;;6.50;99.90;;;6.12;100.00;102569.34;5000499;28;20207;-79
2021/12/15 10:19:37;;;;;;;0.00;0.00;;;6.70;99.90;;;6.27;100.00;102557.13;4992396;28;20234;-80
2021/12/15 10:25:49;;;;;;;0.30;0.30;;;6.90;99.90;;;6.51;100.00;102549.84;4981055;28;20208;-80
2021/12/15 10:28:30;;;;;;;0.10;0.10;;;7.00;99.90;;;6.55;100.00;102549.19;4995661;28;20207;-80
2021/12/15 10:31:13;;;;;;;0.63;0.63;;;7.00;99.90;;;6.54;100.00;102544.75;5000343;28;20207;-79
2021/12/15 10:33:59;;;;;;;0.10;0.10;;;7.00;99.90;;;6.57;100.00;102535.34;4985830;28;20223;-80
2021/12/15 10:36:40;;;;;;;0.10;0.10;;;7.00;99.90;;;6.55;100.00;102528.16;4992743;28;20204;-80
2021/12/15 10:39:22;;;;;;;0.00;0.00;;;;;;;6.72;100.00;102528.34;4982310;28;20207;-81
2021/12/15 10:42:13;;;;;;;0.10;0.10;;;7.30;99.90;;;6.83;100.00;102528.03;5004812;28;20235;-81
2021/12/15 10:44:49;;;;;;;0.00;0.00;;;7.30;99.90;;;6.87;100.00;102520.41;5006944;28;20199;-80
2021/12/15 10:47:25;;;;;;;0.10;0.10;;;7.30;99.90;;;6.91;100.00;102514.50;4989848;28;20200;-82
2021/12/15 10:50:14;;;;;;;0.00;0.00;;;7.40;99.90;;;6.97;100.00;102509.59;5004464;28;20199;-80
2021/12/15 10:52:59;;;;;;;0.00;0.00;;;7.40;99.90;;;6.94;100.00;102504.16;4987086;28;20238;-81
2021/12/15 10:55:45;;;;;;;0.28;0.28;;;7.30;99.90;;;6.97;100.00;102500.81;4987890;28;20207;-80
2021/12/15 10:58:43;;;;;;;0.00;0.00;;;7.40;99.90;;;7.06;100.00;102502.22;4974061;28;20199;-80
2021/12/15 11:01:41;;;;;;;0.32;0.32;;;7.40;99.90;;;7.03;100.00;102493.25;5002829;28;20199;-81
2021/12/15 11:04:33;;;;;;;0.17;0.17;;;7.30;99.90;;;7.05;100.00;102484.63;5005747;28;20215;-80
2021/12/15 11:07:11;;;;;;;0.00;0.00;;;;;;;7.19;100.00;102479.22;5010021;28;20212;-80
2021/12/15 11:09:59;;;;;;;0.10;0.10;;;7.60;99.90;;;7.28;100.00;102480.63;4992580;28;20215;-79
2021/12/15 11:12:47;;;;;;;0.22;0.22;;;7.70;99.90;;;7.33;100.00;102476.53;4991220;28;20220;-79
2021/12/15 11:15:31;;;;;;;0.00;0.00;;;7.60;99.90;;;7.27;100.00;102464.75;4997897;28;20203;-79
2021/12/15 11:18:31;;;;;;;0.10;0.10;;;7.80;99.90;;;7.43;100.00;102459.50;4995834;28;20203;-80
2021/12/15 11:21:08;;;;;;;0.00;0.00;;;7.80;99.90;;;7.47;100.00;102460.56;4997039;28;20211;-80
2021/12/15 11:23:58;;;;;;;0.52;0.52;;;7.80;99.90;;;7.42;100.00;102448.88;4988330;28;20223;-80
2021/12/15 11:26:31;;;;;;;0.10;0.10;;;7.90;99.90;;;7.56;100.00;102453.16;5002272;28;20704;-79
2021/12/15 11:29:13;;;;;;;0.00;0.00;;;8.00;99.90;;;7.62;100.00;102449.13;5007120;28;20219;-81
2021/12/15 11:31:57;;;;;;;0.30;0.30;;;8.00;99.90;;;7.62;100.00;102446.50;4976745;28;20245;-80
2021/12/15 11:34:32;;;;;;;0.10;0.10;;;;;;;7.70;100.00;102444.28;4995281;28;21276;-80
2021/12/15 11:37:23;;;;;;;0.52;0.52;;;8.10;99.90;;;7.81;100.00;102444.88;4996799;28;20211;-79
2021/12/15 11:40:08;;;;;;;0.80;0.80;;;8.20;99.90;;;7.89;100.00;102443.53;4999467;28;20215;-80
2021/12/15 11:42:51;;;;;;;0.10;0.10;;;8.30;99.90;;;7.92;100.00;102439.31;4994309;28;20584;-80
2021/12/15 11:45:41;;;;;;;0.00;0.00;;;8.40;99.90;;;8.07;100.00;102447.13;5002845;28;20245;-79
2021/12/15 11:49:02;;;;;;;0.00;0.00;;;8.50;99.90;;;8.03;100.00;102443.41;5010375;28;20204;-80
2021/12/15 11:51:51;;;;;;;0.00;0.00;;;8.40;99.90;;;7.86;100.00;102417.03;4987911;28;20204;-81
2021/12/15 11:54:35;;;;;;;0.03;0.03;;;8.20;99.90;;;7.82;100.00;102412.44;4994000;28;20207;-81
2021/12/15 11:57:22;;;;;;;0.10;0.10;;;8.30;99.90;;;7.97;100.00;102411.47;5008288;28;20203;-80
2021/12/15 11:59:59;;;;;;;0.10;0.10;;;8.30;99.90;;;7.92;100.00;102393.63;5008182;28;20212;-80
2021/12/15 12:02:39;;;;;;;0.00;0.00;;;8.30;99.90;;;8.02;100.00;102395.91;5007902;28;20226;-79
2021/12/15 12:05:26;;;;;;;0.00;0.00;;;8.60;99.90;;;8.12;100.00;102400.81;4987159;28;20214;-78
2021/12/15 12:08:03;;;;;;;0.00;0.00;;;8.70;99.90;;;8.27;100.00;102396.31;5005613;28;20581;-79
2021/12/15 12:10:51;;;;;;;0.10;0.10;;;8.50;99.90;;;8.17;100.00;102382.59;4970136;28;20211;-79
2021/12/15 12:13:30;;;;;;;0.20;0.20;;;8.60;99.90;;;8.22;100.00;102384.63;5005775;28;20615;-79
2021/12/15 12:16:09;;;;;;;0.00;0.00;;;8.70;99.90;;;8.26;100.00;102373.41;4975267;28;20210;-80
2021/12/15 12:18:46;;;;;;;0.00;0.00;;;8.70;99.90;;;8.42;100.00;102375.09;4993837;28;20768;-79